createdAt,value
2023-02-24T00:01:25.111Z,87.35
2023-02-24T00:08:07.446Z,88.05
2023-02-24T00:14:49.790Z,89.24
2023-02-24T00:21:32.282Z,90.73
2023-02-24T00:28:14.610Z,92.54
2023-02-24T00:34:58.140Z,94.01
2023-02-24T00:41:43.218Z,95.83
2023-02-24T00:48:28.410Z,97.85
2023-02-24T00:55:15.082Z,99.08
2023-02-24T01:01:57.628Z,100.00
2023-02-24T01:08:42.900Z,100.00
2023-02-24T01:15:25.710Z,100.00
2023-02-24T01:22:10.160Z,100.00
2023-02-24T01:28:55.685Z,100.00
2023-02-24T01:35:38.043Z,100.00
2023-02-24T01:42:22.123Z,100.00
2023-02-24T01:49:34.772Z,100.00
2023-02-24T01:56:17.616Z,100.00
2023-02-24T02:03:33.848Z,100.00
2023-02-24T02:10:18.557Z,100.00
2023-02-24T02:17:13.491Z,100.00
2023-02-24T02:24:26.937Z,100.00
2023-02-24T02:32:07.797Z,100.00
2023-02-24T02:39:03.271Z,100.00
2023-02-24T02:46:17.867Z,100.00
2023-02-24T02:53:12.295Z,100.00
2023-02-24T03:00:21.395Z,100.00
2023-02-24T03:07:05.350Z,100.00
2023-02-24T03:13:55.501Z,100.00
2023-02-24T03:20:51.703Z,100.00
2023-02-24T03:27:52.829Z,100.00
2023-02-24T03:35:07.854Z,100.00
2023-02-24T03:42:03.594Z,100.00
2023-02-24T03:49:01.313Z,100.00
2023-02-24T03:55:48.705Z,100.00
2023-02-24T04:02:33.973Z,100.00
2023-02-24T04:09:39.142Z,100.00
2023-02-24T04:16:47.339Z,100.00
2023-02-24T04:23:44.884Z,100.00
2023-02-24T04:30:35.244Z,100.00
2023-02-24T04:37:23.210Z,100.00
2023-02-24T04:44:06.828Z,100.00
2023-02-24T04:50:55.367Z,100.00
2023-02-24T04:57:40.648Z,100.00
2023-02-24T05:04:24.147Z,100.00
2023-02-24T05:11:07.239Z,100.00
2023-02-24T05:17:52.634Z,100.00
2023-02-24T05:24:35.682Z,100.00
2023-02-24T05:31:24.208Z,100.00
2023-02-24T05:38:08.520Z,100.00
2023-02-24T05:44:51.022Z,100.00
2023-02-24T05:51:37.131Z,100.00
2023-02-24T05:58:19.597Z,100.00
2023-02-24T06:05:08.937Z,100.00
2023-02-24T06:11:51.497Z,100.00
2023-02-24T06:18:34.140Z,100.00
2023-02-24T06:25:18.597Z,98.72
2023-02-24T06:32:08.905Z,97.71
2023-02-24T06:38:52.778Z,97.00
2023-02-24T06:45:35.652Z,97.17
2023-02-24T06:52:19.497Z,99.18
2023-02-24T06:59:02.069Z,100.00
2023-02-24T07:06:11.103Z,99.75
2023-02-24T07:12:55.106Z,97.11
2023-02-24T07:19:37.704Z,97.47
2023-02-24T07:26:24.092Z,98.15
2023-02-24T07:33:08.422Z,98.04
2023-02-24T07:39:51.883Z,98.67
2023-02-24T07:46:34.328Z,97.53
2023-02-24T07:53:18.899Z,97.72
2023-02-24T08:00:14.308Z,92.60
2023-02-24T08:06:59.174Z,91.28
2023-02-24T08:13:41.499Z,88.07
2023-02-24T08:20:25.264Z,87.81
2023-02-24T08:27:07.612Z,88.18
2023-02-24T08:33:50.439Z,84.54
2023-02-24T08:40:39.790Z,81.80
2023-02-24T08:47:31.031Z,77.85
2023-02-24T08:54:19.060Z,77.77
2023-02-24T09:01:03.781Z,77.62
2023-02-24T09:07:54.763Z,78.48
2023-02-24T09:14:37.579Z,77.71
2023-02-24T09:21:38.494Z,75.64
2023-02-24T09:28:24.797Z,75.01
2023-02-24T09:35:07.587Z,73.89
2023-02-24T09:41:58.866Z,73.98
2023-02-24T09:49:12.929Z,73.52
2023-02-24T09:56:16.198Z,71.88
2023-02-24T10:03:44.522Z,70.88
2023-02-24T10:10:35.938Z,71.67
2023-02-24T10:17:25.597Z,71.75
2023-02-24T10:24:30.790Z,70.40
2023-02-24T10:31:30.015Z,69.97
2023-02-24T10:38:12.914Z,69.07
2023-02-24T10:45:18.361Z,68.56
2023-02-24T10:52:09.095Z,69.04
2023-02-24T10:59:24.640Z,69.56
2023-02-24T11:06:43.205Z,69.05
2023-02-24T11:13:44.825Z,67.25
2023-02-24T11:20:51.774Z,66.36
2023-02-24T11:27:34.855Z,66.41
2023-02-24T11:34:25.193Z,66.17
2023-02-24T11:41:26.182Z,66.50
2023-02-24T11:48:32.413Z,65.46
2023-02-24T11:55:38.837Z,65.60
2023-02-24T12:02:47.817Z,65.06
2023-02-24T12:09:44.960Z,64.31
2023-02-24T12:16:38.158Z,63.43
2023-02-24T12:23:32.543Z,63.24
2023-02-24T12:30:49.009Z,63.21
2023-02-24T12:38:03.600Z,63.51
2023-02-24T12:45:03.597Z,62.34
2023-02-24T12:51:57.962Z,62.23
2023-02-24T12:58:45.676Z,62.55
2023-02-24T13:05:29.713Z,61.14
2023-02-24T13:12:23.947Z,61.15
2023-02-24T13:19:29.341Z,61.80
2023-02-24T13:26:11.677Z,62.41
2023-02-24T13:33:18.841Z,61.34
2023-02-24T13:40:12.703Z,61.56
2023-02-24T13:47:11.751Z,61.76
2023-02-24T13:54:50.150Z,62.69
2023-02-24T14:01:45.885Z,62.18
2023-02-24T14:08:42.590Z,62.54
2023-02-24T14:15:27.896Z,62.41
2023-02-24T14:22:19.200Z,61.54
2023-02-24T14:29:02.268Z,61.85
2023-02-24T14:35:47.543Z,61.98
2023-02-24T14:42:29.793Z,62.63
2023-02-24T14:49:25.688Z,62.93
2023-02-24T14:56:11.633Z,63.38
2023-02-24T15:03:23.038Z,63.91
2023-02-24T15:10:07.712Z,64.29
2023-02-24T15:16:56.926Z,64.40
2023-02-24T15:23:39.460Z,64.88
2023-02-24T15:30:52.076Z,64.96
2023-02-24T15:37:44.856Z,65.40
2023-02-24T15:44:36.357Z,65.27
2023-02-24T15:51:45.467Z,65.73
2023-02-24T15:58:27.826Z,66.17
2023-02-24T16:05:14.039Z,66.49
2023-02-24T16:11:57.213Z,66.68
2023-02-24T16:18:39.782Z,67.04
2023-02-24T16:25:22.772Z,67.68
2023-02-24T16:32:05.566Z,68.39
2023-02-24T16:38:50.970Z,68.92
2023-02-24T16:45:35.878Z,69.03
2023-02-24T16:52:19.385Z,69.30
2023-02-24T16:59:04.777Z,69.93
2023-02-24T17:05:47.785Z,70.90
2023-02-24T17:12:30.107Z,71.73
2023-02-24T17:19:13.218Z,72.46
2023-02-24T17:25:59.937Z,73.26
2023-02-24T17:32:42.502Z,73.73
2023-02-24T17:39:24.930Z,74.71
2023-02-24T17:46:07.752Z,75.00
2023-02-24T17:52:50.159Z,75.44
2023-02-24T17:59:32.469Z,75.79
2023-02-24T18:06:14.782Z,75.83
2023-02-24T18:12:57.048Z,75.48
2023-02-24T18:19:39.663Z,75.82
2023-02-24T18:26:24.150Z,75.69
2023-02-24T18:33:07.060Z,75.89
2023-02-24T18:39:50.862Z,75.71
2023-02-24T18:46:36.313Z,76.23
2023-02-24T18:53:19.914Z,77.06
2023-02-24T19:00:06.704Z,77.27
2023-02-24T19:06:49.268Z,77.46
2023-02-24T19:13:32.078Z,77.44
2023-02-24T19:20:15.370Z,77.75
2023-02-24T19:26:57.681Z,77.56
2023-02-24T19:33:40.163Z,77.79
2023-02-24T19:40:23.619Z,77.77
2023-02-24T19:47:05.937Z,78.34
2023-02-24T19:53:55.775Z,78.54
2023-02-24T20:00:38.088Z,78.61
2023-02-24T20:07:20.628Z,78.82
2023-02-24T20:14:03.940Z,79.06
2023-02-24T20:20:48.932Z,78.86
2023-02-24T20:27:33.581Z,78.92
2023-02-24T20:34:16.874Z,79.40
2023-02-24T20:41:04.001Z,79.10
2023-02-24T20:47:46.309Z,79.50
2023-02-24T20:54:29.017Z,79.85
2023-02-24T21:01:13.556Z,80.10
2023-02-24T21:07:55.994Z,80.77
2023-02-24T21:14:38.462Z,81.33
2023-02-24T21:21:21.279Z,82.11
2023-02-24T21:28:03.886Z,82.53
2023-02-24T21:34:46.371Z,83.07
2023-02-24T21:41:28.714Z,83.41
2023-02-24T21:48:11.693Z,83.80
2023-02-24T21:54:54.166Z,84.42
2023-02-24T22:01:41.312Z,84.70
2023-02-24T22:08:25.068Z,85.13
2023-02-24T22:15:09.030Z,85.42
2023-02-24T22:21:51.724Z,85.81
2023-02-24T22:28:36.110Z,86.32
2023-02-24T22:35:21.727Z,86.35
2023-02-24T22:42:04.593Z,87.04
2023-02-24T22:48:47.420Z,87.11
2023-02-24T22:55:29.700Z,87.48
2023-02-24T23:02:12.041Z,87.93
2023-02-24T23:08:55.141Z,88.89
2023-02-24T23:15:39.209Z,88.67
2023-02-24T23:22:21.867Z,89.18
2023-02-24T23:29:06.403Z,89.19
2023-02-24T23:35:49.109Z,89.21
2023-02-24T23:42:31.438Z,89.28
2023-02-24T23:49:13.789Z,89.25
2023-02-24T23:55:56.102Z,89.58
